Time;durP1;ratioP1;P1;durP2;ratioP2;P2;SDS_P1;SDS_P2;PMS_P1;PMS_P2;Temp;Humidity;BMP_temperature;BMP_pressure;BME280_temperature;BME280_humidity;BME280_pressure;Samples;Min_cycle;Max_cycle;Signal;HPM_P1;HPM_P2
2021/10/09 00:01:57;;;;;;;24.38;12.52;;;;;;;8.87;87.30;99007.53;4993431;28;20112;-61
2021/10/09 00:04:22;;;;;;;30.02;13.95;;;;;;;8.60;87.39;99012.34;4996333;28;20076;-60
2021/10/09 00:06:48;;;;;;;26.77;14.05;;;;;;;8.78;86.91;99010.28;4992218;28;20038;-60
2021/10/09 00:09:13;;;;;;;27.85;13.40;;;;;;;8.65;87.87;99013.09;4993532;28;20042;-61
2021/10/09 00:11:39;;;;;;;23.17;13.07;;;;;;;8.72;87.21;99011.25;4993507;28;20050;-60
2021/10/09 00:14:07;;;;;;;27.38;13.70;;;;;;;8.57;89.23;99007.19;4993693;28;20144;-60
2021/10/09 00:16:34;;;;;;;26.52;13.32;;;;;;;8.64;88.19;99015.75;4992462;28;20118;-60
2021/10/09 00:18:59;;;;;;;30.38;13.55;;;;;;;8.56;88.98;99010.63;4993480;28;20524;-60
2021/10/09 00:21:24;;;;;;;27.63;13.23;;;;;;;8.38;89.89;99021.31;4992383;28;20035;-59
2021/10/09 00:23:50;;;;;;;28.70;13.70;;;;;;;8.48;89.10;99017.72;4993771;28;20088;-60
2021/10/09 00:26:16;;;;;;;20.80;12.35;;;;;;;8.52;89.77;99019.38;4991112;28;20030;-61
2021/10/09 00:28:41;;;;;;;26.15;13.75;;;;;;;8.46;89.07;99009.09;4992981;28;20104;-61
2021/10/09 00:31:07;;;;;;;24.10;12.88;;;;;;;8.41;89.60;99016.91;4993488;28;20408;-61
2021/10/09 00:33:32;;;;;;;23.52;13.63;;;;;;;8.29;90.37;99007.59;4993562;28;20058;-59
2021/10/09 00:35:57;;;;;;;21.23;13.07;;;;;;;8.46;89.96;99009.09;4988083;28;20033;-59
2021/10/09 00:38:23;;;;;;;24.65;13.10;;;;;;;8.48;89.42;99013.38;4992714;28;20040;-61
2021/10/09 00:40:49;;;;;;;21.92;12.82;;;;;;;8.35;90.35;99008.38;4992686;28;20129;-61
2021/10/09 00:43:14;;;;;;;22.08;12.77;;;;;;;8.35;90.63;99005.78;4991604;28;20041;-61
2021/10/09 00:45:49;;;;;;;25.65;13.77;;;;;;;8.32;90.47;99003.22;4991264;28;20035;-61
2021/10/09 00:48:14;;;;;;;25.27;12.88;;;;;;;8.43;89.47;98983.97;4992925;28;20072;-61
2021/10/09 00:50:39;;;;;;;22.45;12.20;;;;;;;8.25;90.29;98995.53;4992336;28;20038;-60
2021/10/09 00:53:05;;;;;;;29.23;13.52;;;;;;;8.18;91.27;98999.09;4992550;28;20161;-61
2021/10/09 00:55:31;;;;;;;26.27;12.90;;;;;;;8.12;91.77;98999.19;4990925;28;20042;-60
2021/10/09 00:57:58;;;;;;;23.83;12.10;;;;;;;8.24;90.57;99001.59;4995350;28;20061;-61
2021/10/09 01:00:23;;;;;;;28.08;13.73;;;;;;;8.10;92.01;99003.53;4990715;28;20031;-61
2021/10/09 01:02:50;;;;;;;26.17;13.63;;;;;;;8.17;91.51;98991.31;4991585;28;20029;-59
2021/10/09 01:05:16;;;;;;;26.23;13.65;;;;;;;8.04;90.99;98990.66;4995619;28;20092;-62
2021/10/09 01:07:41;;;;;;;24.77;12.57;;;;;;;8.15;91.39;98999.13;4991747;28;20018;-60
2021/10/09 01:10:07;;;;;;;26.90;13.60;;;;;;;8.25;90.30;98995.53;4991587;28;20076;-60
2021/10/09 01:12:33;;;;;;;25.95;13.73;;;;;;;8.26;90.30;99002.44;4992427;28;20431;-60
2021/10/09 01:14:58;;;;;;;24.50;13.20;;;;;;;8.30;90.27;98993.69;4991601;28;20113;-61
2021/10/09 01:17:24;;;;;;;22.45;13.05;;;;;;;8.35;89.98;98992.78;4990972;28;20049;-61
2021/10/09 01:19:50;;;;;;;28.27;13.73;;;;;;;8.33;89.98;98997.16;4991123;28;20044;-59
2021/10/09 01:22:15;;;;;;;24.77;12.45;;;;;;;8.04;90.96;99001.03;4990685;28;20034;-60
2021/10/09 01:24:41;;;;;;;27.73;13.80;;;;;;;8.14;90.69;99002.59;4993220;28;20114;-60
2021/10/09 01:27:07;;;;;;;19.42;10.80;;;;;;;8.22;90.61;99000.78;4992194;28;20041;-60
2021/10/09 01:29:33;;;;;;;25.98;12.70;;;;;;;8.20;90.68;98997.34;4991777;28;20030;-60
2021/10/09 01:31:59;;;;;;;26.17;13.18;;;;;;;8.13;90.61;99000.06;4990920;28;20049;-59
2021/10/09 01:34:26;;;;;;;26.90;13.18;;;;;;;8.25;90.56;98995.53;4990873;28;20041;-59
2021/10/09 01:36:52;;;;;;;26.95;13.43;;;;;;;8.06;90.58;98999.28;4991998;28;20061;-61
2021/10/09 01:39:17;;;;;;;24.25;12.85;;;;;;;8.04;90.64;98995.84;4991418;28;20164;-60
2021/10/09 01:41:48;;;;;;;28.55;13.63;;;;;;;7.72;92.36;98984.19;4991298;28;20388;-60
2021/10/09 01:44:15;;;;;;;25.13;12.27;;;;;;;7.87;92.41;98994.34;4991806;28;20412;-62
2021/10/09 01:46:42;;;;;;;26.30;14.27;;;;;;;7.99;91.19;98989.84;4990990;28;20098;-59
2021/10/09 01:49:08;;;;;;;26.30;14.02;;;;;;;7.94;91.82;98995.13;4994538;28;20622;-60
2021/10/09 01:51:34;;;;;;;28.20;13.77;;;;;;;7.97;91.02;98991.63;4987383;28;20057;-60
2021/10/09 01:54:00;;;;;;;29.50;13.85;;;;;;;8.04;91.42;98990.66;4993046;28;20573;-61
2021/10/09 01:56:26;;;;;;;28.75;13.00;;;;;;;8.00;91.39;98989.00;4991253;28;20042;-62
2021/10/09 01:58:51;;;;;;;29.52;14.10;;;;;;;8.02;90.96;98989.81;4992319;28;20092;-61
2021/10/09 02:01:17;;;;;;;26.27;14.05;;;;;;;7.93;91.55;98987.34;4988682;28;20034;-59
2021/10/09 02:03:43;;;;;;;32.90;13.60;;;;;;;7.89;90.75;98992.59;4990368;28;20076;-61
2021/10/09 02:06:09;;;;;;;30.23;13.63;;;;;;;8.04;91.26;98990.66;4991776;28;20038;-61
2021/10/09 02:08:35;;;;;;;27.42;13.45;;;;;;;8.01;90.79;98981.16;4994054;28;20120;-60
2021/10/09 02:11:05;;;;;;;23.77;13.38;;;;;;;8.02;91.11;98979.44;4991545;28;20141;-61
2021/10/09 02:26:49;;;;;;;27.88;13.68;;;;;;;8.11;89.98;98982.75;4990351;28;20077;-60
2021/10/09 02:29:15;;;;;;;34.28;14.50;;;;;;;8.11;89.50;98979.28;4990548;28;20079;-58
2021/10/09 02:31:40;;;;;;;26.98;13.60;;;;;;;8.14;89.67;98984.41;4991643;28;20030;-59
2021/10/09 02:34:06;;;;;;;30.48;13.85;;;;;;;8.06;89.52;98978.50;4991763;28;20025;-58
2021/10/09 02:36:31;;;;;;;32.25;14.00;;;;;;;8.34;88.76;98980.66;4989316;28;20496;-58
2021/10/09 02:38:56;;;;;;;29.27;13.35;;;;;;;8.09;89.26;98987.09;4988585;28;20558;-58
2021/10/09 02:41:22;;;;;;;27.58;13.93;;;;;;;8.13;88.93;98980.13;4988068;28;20136;-57
2021/10/09 02:43:47;;;;;;;22.75;12.57;;;;;;;7.96;90.14;98979.50;4989266;28;20503;-58
2021/10/09 02:46:13;;;;;;;27.95;14.18;;;;;;;8.04;89.42;98970.72;4990752;28;20585;-58
2021/10/09 02:48:39;;;;;;;29.38;13.30;;;;;;;8.06;90.33;98973.28;4991058;28;20034;-58
2021/10/09 02:51:05;;;;;;;28.52;13.65;;;;;;;7.87;89.91;98976.16;4990323;28;20029;-58
2021/10/09 02:53:30;;;;;;;30.52;14.18;;;;;;;7.95;90.80;98976.06;4994173;28;20488;-58
2021/10/09 02:55:55;;;;;;;29.92;12.52;;;;;;;8.25;89.94;98979.94;4994910;28;20038;-59
2021/10/09 02:58:21;;;;;;;25.73;14.43;;;;;;;7.95;89.10;98970.00;4992244;28;20062;-58
2021/10/09 03:00:46;;;;;;;30.75;14.38;;;;;;;8.08;89.20;98968.94;4995459;28;20129;-58
2021/10/09 03:03:11;;;;;;;33.47;14.40;;;;;;;8.05;89.75;98976.75;4994528;28;20054;-59
2021/10/09 03:05:37;;;;;;;27.17;14.02;;;;;;;8.19;89.29;98979.16;4996753;28;20042;-58
2021/10/09 03:08:02;;;;;;;29.20;14.80;;;;;;;8.05;88.96;98979.34;4995192;28;20128;-62
2021/10/09 03:10:28;;;;;;;34.10;15.05;;;;;;;8.14;88.83;98981.81;4993182;28;20038;-62
2021/10/09 03:12:53;;;;;;;25.75;13.50;;;;;;;7.80;91.03;98981.47;4993176;28;20032;-61
2021/10/09 03:15:19;;;;;;;25.15;13.25;;;;;;;7.98;89.83;98977.75;4993492;28;20030;-60
2021/10/09 03:17:44;;;;;;;29.42;15.00;;;;;;;7.87;90.40;98972.72;4993393;28;20029;-58
2021/10/09 03:20:11;;;;;;;28.70;14.50;;;;;;;7.80;90.91;98977.13;4995260;28;20026;-58
2021/10/09 03:22:38;;;;;;;30.83;15.18;;;;;;;7.95;89.87;98970.00;4992435;28;20037;-59
2021/10/09 03:25:04;;;;;;;31.70;15.35;;;;;;;7.85;90.42;98975.34;4994226;28;20030;-58
2021/10/09 03:27:29;;;;;;;32.40;15.57;;;;;;;7.73;91.35;98967.72;4993117;28;20038;-58
2021/10/09 03:29:55;;;;;;;33.78;15.45;;;;;;;7.96;89.84;98963.91;4994725;28;20114;-57
2021/10/09 03:32:20;;;;;;;33.20;14.90;;;;;;;7.85;90.48;98967.53;4993903;28;20030;-59
2021/10/09 03:34:46;;;;;;;24.70;13.48;;;;;;;7.81;90.85;98968.47;4992047;28;20399;-59
2021/10/09 03:37:11;;;;;;;35.28;16.70;;;;;;;7.81;90.62;98973.66;4990917;28;20101;-58
2021/10/09 03:39:39;;;;;;;33.33;15.95;;;;;;;7.85;89.89;98975.34;4990041;28;20628;-58
2021/10/09 03:42:12;;;;;;;39.58;16.63;;;;;;;7.69;91.39;98969.50;4994487;28;20535;-58
2021/10/09 03:44:46;;;;;;;40.13;14.95;;;;;;;7.65;91.78;98972.16;4991219;28;20042;-59
2021/10/09 03:47:25;;;;;;;35.33;15.85;;;;;;;7.66;91.66;98981.66;4991942;28;20046;-59
2021/10/09 03:49:59;;;;;;;27.50;15.40;;;;;;;7.62;91.21;98980.84;4994392;28;20073;-59
2021/10/09 03:52:38;;;;;;;30.55;15.15;;;;;;;7.63;91.49;98989.50;4991351;28;20049;-59
2021/10/09 03:55:07;;;;;;;30.98;13.93;;;;;;;7.69;90.57;98982.47;4990467;28;20022;-59
2021/10/09 03:57:33;;;;;;;31.10;15.48;;;;;;;7.52;90.63;98982.69;4991090;28;20037;-58
2021/10/09 03:59:58;;;;;;;36.33;15.88;;;;;;;7.46;90.77;98980.19;4993370;28;20022;-59
2021/10/09 04:02:24;;;;;;;33.67;15.60;;;;;;;7.57;90.27;98981.78;4992439;28;20065;-59
2021/10/09 04:04:49;;;;;;;34.40;15.70;;;;;;;7.68;89.68;98985.09;4990911;28;20034;-59
2021/10/09 04:07:14;;;;;;;31.52;14.57;;;;;;;7.50;90.46;98987.06;4993775;28;20039;-58
2021/10/09 04:09:40;;;;;;;38.45;17.05;;;;;;;7.54;89.78;98985.28;4991682;28;20030;-59
2021/10/09 04:12:05;;;;;;;26.10;14.15;;;;;;;7.68;89.30;98987.69;4993495;28;20659;-59
2021/10/09 04:14:31;;;;;;;36.30;16.17;;;;;;;7.79;88.12;98985.78;4990575;28;20081;-58
2021/10/09 04:16:56;;;;;;;29.52;13.50;;;;;;;7.78;87.52;98984.09;4992697;28;20066;-59
2021/10/09 04:19:21;;;;;;;33.35;15.65;;;;;;;7.42;90.19;98981.09;4991855;28;20126;-59
2021/10/09 04:21:47;;;;;;;31.60;14.43;;;;;;;7.65;88.29;98986.00;4992285;28;20046;-58
2021/10/09 04:24:15;;;;;;;34.28;15.50;;;;;;;7.89;86.32;98987.41;4992650;28;20034;-60
2021/10/09 04:26:40;;;;;;;28.65;14.60;;;;;;;7.77;87.16;98987.56;4995206;28;20053;-59
2021/10/09 04:29:05;;;;;;;30.95;15.70;;;;;;;7.80;86.31;98979.72;4993894;28;20041;-58
2021/10/09 04:31:31;;;;;;;17.98;9.65;;;;;;;7.95;85.38;98988.19;4992566;28;20046;-59
2021/10/09 04:33:56;;;;;;;15.27;9.10;;;;;;;7.86;85.15;98976.19;4994123;28;20037;-59
2021/10/09 04:36:21;;;;;;;20.25;10.82;;;;;;;7.84;85.91;98978.78;4991651;28;20034;-59
2021/10/09 04:38:47;;;;;;;25.75;12.77;;;;;;;7.91;87.15;98980.44;4993305;28;20033;-59
2021/10/09 04:41:12;;;;;;;30.40;15.73;;;;;;;7.84;86.93;98976.19;4992770;28;20034;-59
2021/10/09 04:43:37;;;;;;;35.17;15.13;;;;;;;7.80;87.00;98977.13;4991832;28;20026;-59
2021/10/09 04:46:03;;;;;;;37.58;16.33;;;;;;;7.86;85.76;98979.63;4988879;28;20045;-59
2021/10/09 04:48:28;;;;;;;29.60;14.25;;;;;;;7.64;85.89;98980.81;4992587;28;20022;-60
2021/10/09 04:50:53;;;;;;;28.52;15.57;;;;;;;7.49;85.95;98987.94;4993218;28;20046;-59
2021/10/09 04:53:19;;;;;;;38.85;17.02;;;;;;;7.59;86.61;98978.31;4992387;28;20036;-59
2021/10/09 04:55:44;;;;;;;34.25;16.33;;;;;;;7.23;87.60;98982.22;4993369;28;20078;-58
2021/10/09 04:58:09;;;;;;;32.17;15.60;;;;;;;7.55;86.66;98973.16;4992242;28;20057;-59
2021/10/09 05:00:35;;;;;;;24.48;13.25;;;;;;;7.50;86.77;98971.47;4991501;28;20124;-59
2021/10/09 05:03:00;;;;;;;42.08;17.77;;;;;;;7.29;87.40;98969.16;4994394;28;20145;-58
2021/10/09 05:05:25;;;;;;;27.27;14.20;;;;;;;7.35;86.52;98971.66;4991037;28;20118;-58
2021/10/09 05:07:51;;;;;;;35.00;17.27;;;;;;;7.21;88.45;98976.19;4990738;28;20439;-59
2021/10/09 05:10:16;;;;;;;35.72;18.08;;;;;;;7.28;88.60;98981.28;4989626;28;20025;-60
2021/10/09 05:12:41;;;;;;;29.13;15.40;;;;;;;7.49;86.01;98982.72;4991216;28;20551;-58
2021/10/09 05:15:07;;;;;;;24.50;11.25;;;;;;;7.45;86.36;98980.22;4991276;28;20023;-58
2021/10/09 05:17:32;;;;;;;29.58;15.85;;;;;;;7.38;87.35;98979.41;4992658;28;20462;-59
2021/10/09 05:19:58;;;;;;;19.92;11.07;;;;;;;7.46;85.26;98976.72;4989568;28;20034;-59
2021/10/09 05:22:23;;;;;;;33.55;15.82;;;;;;;7.17;87.41;98983.16;4992071;28;20092;-59
2021/10/09 05:24:53;;;;;;;47.72;19.63;;;;;;;7.21;86.86;98981.38;4993679;28;20033;-59
2021/10/09 05:27:19;;;;;;;46.22;19.42;;;;;;;7.11;87.71;98989.25;4989925;28;20066;-60
2021/10/09 05:29:45;;;;;;;27.02;12.95;;;;;;;7.02;89.36;98991.97;4990668;28;20551;-59
2021/10/09 05:32:10;;;;;;;33.80;15.48;;;;;;;7.10;88.93;98987.53;4991507;28;20035;-59
2021/10/09 05:34:35;;;;;;;33.15;15.98;;;;;;;7.14;89.11;98991.81;4988805;28;20034;-58
2021/10/09 05:37:01;;;;;;;39.22;18.35;;;;;;;7.26;87.52;98990.81;4993630;28;20033;-59
2021/10/09 05:39:27;;;;;;;43.05;18.50;;;;;;;7.04;88.51;98987.59;4991516;28;20023;-60
2021/10/09 05:41:53;;;;;;;36.70;17.88;;;;;;;7.05;89.26;98984.13;4988333;28;20049;-59
2021/10/09 05:44:19;;;;;;;43.13;20.08;;;;;;;6.95;89.17;99000.69;4989706;28;20141;-59
2021/10/09 05:46:45;;;;;;;42.25;20.17;;;;;;;7.02;90.20;99002.34;4990257;28;20133;-59
2021/10/09 05:49:12;;;;;;;47.50;21.17;;;;;;;7.12;89.99;98997.91;4991251;28;20054;-58
2021/10/09 05:51:52;;;;;;;55.72;21.40;;;;;;;7.21;89.37;99004.72;4991619;28;20034;-60
2021/10/09 05:54:32;;;;;;;55.92;20.85;;;;;;;7.41;88.89;99007.09;4988634;28;20119;-59
2021/10/09 05:57:47;;;;;;;40.97;19.80;;;;;;;7.41;88.62;99007.09;4990574;28;20042;-63
2021/10/09 06:44:12;;;;;;;24.25;12.77;;;;;;;11.73;71.65;99046.97;4995922;28;20053;-58
2021/10/09 06:49:28;;;;;;;37.63;15.60;;;;;;;12.54;66.46;99049.72;4995093;28;20030;-59
2021/10/09 07:00:06;;;;;;;21.38;12.23;;;;;;;13.13;64.92;99041.69;4991950;28;20045;-61
2021/10/09 07:02:37;;;;;;;29.55;14.30;;;;;;;12.46;65.14;99037.78;4992282;28;20031;-61
2021/10/09 07:05:04;;;;;;;26.25;13.63;;;;;;;12.19;66.45;99047.38;4995274;28;20079;-58
2021/10/09 07:07:33;;;;;;;28.52;14.70;;;;;;;11.68;68.51;99041.84;4991033;28;20399;-59
2021/10/09 07:09:58;;;;;;;27.13;14.50;;;;;;;12.32;66.49;99043.47;4994725;28;20033;-62
2021/10/09 07:12:24;;;;;;;25.65;13.55;;;;;;;13.02;63.48;99047.31;4994906;28;20034;-60
2021/10/09 07:14:49;;;;;;;28.65;13.55;;;;;;;13.08;64.65;99039.22;4993535;28;20035;-59
2021/10/09 07:17:14;;;;;;;24.73;13.85;;;;;;;16.75;53.77;99046.69;4993157;28;20038;-59
2021/10/09 07:19:39;;;;;;;23.67;13.60;;;;;;;15.68;56.24;99051.72;4993920;28;20092;-59
2021/10/09 07:22:05;;;;;;;28.60;14.27;;;;;;;17.36;50.51;99056.88;4996401;28;20057;-59
2021/10/09 07:24:30;;;;;;;23.50;14.13;;;;;;;16.80;52.24;99059.66;4993043;28;20675;-59
2021/10/09 07:26:55;;;;;;;23.38;11.45;;;;;;;17.72;49.20;99054.09;4993382;28;20415;-62
2021/10/09 07:29:21;;;;;;;26.25;13.82;;;;;;;18.82;47.03;99056.84;4992771;28;20022;-59
2021/10/09 07:31:46;;;;;;;26.33;13.77;;;;;;;18.43;47.49;99042.31;4993876;28;20061;-62
2021/10/09 07:34:11;;;;;;;21.70;12.75;;;;;;;19.87;43.62;99042.66;4997360;28;20064;-60
2021/10/09 07:36:37;;;;;;;24.27;13.27;;;;;;;18.75;45.85;99050.16;4992907;28;20045;-60
2021/10/09 07:39:02;;;;;;;32.97;13.70;;;;;;;18.92;46.26;99047.44;4995275;28;20036;-61
2021/10/09 07:41:28;;;;;;;22.98;13.20;;;;;;;18.48;45.25;99056.09;4993166;28;20058;-60
2021/10/09 07:43:53;;;;;;;25.50;13.13;;;;;;;17.52;46.84;99056.00;4992193;28;20029;-61
2021/10/09 07:46:18;;;;;;;24.70;13.25;;;;;;;17.19;47.72;99068.31;4991920;28;20042;-58
2021/10/09 07:48:44;;;;;;;20.58;11.82;;;;;;;19.26;43.05;99062.16;4993293;28;20022;-61
2021/10/09 07:51:09;;;;;;;22.85;12.35;;;;;;;18.51;44.63;99058.59;4991884;28;20034;-60
2021/10/09 07:53:34;;;;;;;25.40;11.70;;;;;;;17.98;45.50;99054.50;4993110;28;20025;-60
2021/10/09 07:55:59;;;;;;;19.45;12.32;;;;;;;17.30;46.04;99064.16;4992806;28;20053;-59
2021/10/09 07:58:25;;;;;;;25.42;12.02;;;;;;;17.30;45.61;99058.91;4993441;28;20447;-61
2021/10/09 08:00:50;;;;;;;18.95;11.85;;;;;;;19.77;41.98;99058.25;4992412;28;20076;-59
2021/10/09 08:03:18;;;;;;;28.88;12.20;;;;;;;19.53;41.53;99058.78;4995629;28;20076;-59
2021/10/09 08:05:43;;;;;;;20.45;12.02;;;;;;;17.43;44.30;99071.47;4991888;28;20042;-60
2021/10/09 08:08:09;;;;;;;24.63;12.57;;;;;;;18.87;43.06;99065.34;4993032;28;20034;-60
2021/10/09 08:10:34;;;;;;;25.05;11.70;;;;;;;19.60;41.26;99068.06;4991359;28;20121;-59
2021/10/09 08:13:00;;;;;;;19.88;11.52;;;;;;;20.18;40.50;99065.41;4993244;28;20030;-60
2021/10/09 08:15:25;;;;;;;22.75;12.27;;;;;;;18.72;41.98;99061.78;4989853;28;20046;-60
2021/10/09 08:17:50;;;;;;;20.38;10.75;;;;;;;20.77;40.77;99066.03;4992050;28;20557;-61
2021/10/09 08:20:16;;;;;;;22.52;11.65;;;;;;;21.80;36.86;99062.63;4994773;28;20037;-60
2021/10/09 08:22:54;;;;;;;19.60;11.20;;;;;;;20.81;39.12;99069.31;4994548;28;20037;-60
2021/10/09 08:38:50;;;;;;;16.98;10.73;;;;;;;18.22;43.97;99074.25;4994425;28;20045;-59
2021/10/09 08:41:16;;;;;;;22.50;11.85;;;;;;;17.57;44.29;99082.16;4993878;28;20042;-60
2021/10/09 08:43:48;;;;;;;20.88;11.70;;;;;;;16.16;46.35;99085.50;4995797;28;20026;-60
2021/10/09 08:46:13;;;;;;;20.77;10.98;;;;;;;17.51;44.77;99087.72;4994487;28;20049;-59
2021/10/09 08:48:42;;;;;;;21.55;10.63;;;;;;;16.02;47.47;99085.28;4991736;28;20026;-59
2021/10/09 08:51:08;;;;;;;19.83;11.15;;;;;;;18.30;42.46;99085.25;4989358;28;20125;-59
2021/10/09 08:53:39;;;;;;;20.38;10.82;;;;;;;17.39;43.45;99081.31;4992133;28;21041;-59
2021/10/09 08:56:05;;;;;;;16.92;9.82;;;;;;;17.90;43.37;99074.25;4993885;28;20041;-60
2021/10/09 08:58:33;;;;;;;21.85;11.50;;;;;;;18.01;43.91;99070.16;4993048;28;20034;-59
2021/10/09 09:03:53;;;;;;;26.45;10.68;;;;;;;16.83;44.21;99085.03;4994772;28;21007;-59
2021/10/09 09:06:37;;;;;;;19.95;10.55;;;;;;;18.64;42.55;99079.88;4994173;28;20038;-59
2021/10/09 09:25:28;;;;;;;20.17;10.75;;;;;;;17.55;43.77;99083.97;4987349;28;20078;-58
2021/10/09 09:26:20;;;;;;;15.40;9.30;;;;;;;21.66;38.12;99067.09;4983700;28;20049;-60
2021/10/09 09:31:54;;;;;;;23.48;9.98;;;;;;;20.56;38.88;99067.38;4989976;28;20407;-59
2021/10/09 09:34:36;;;;;;;16.85;9.98;;;;;;;20.48;40.88;99069.69;4989669;28;20556;-60
2021/10/09 09:39:44;;;;;;;15.82;9.27;;;;;;;20.77;40.92;99067.81;4991696;28;20040;-60
2021/10/09 09:42:10;;;;;;;22.63;9.35;;;;;;;19.91;38.92;99073.31;4989642;28;20023;-60
2021/10/09 09:44:50;;;;;;;18.23;9.40;;;;;;;20.94;39.02;99078.16;4990635;28;20046;-57
2021/10/09 09:47:16;;;;;;;18.83;10.32;;;;;;;17.97;43.10;99079.19;4991144;28;20038;-60
2021/10/09 09:49:42;;;;;;;17.52;10.32;;;;;;;18.79;41.73;99072.88;4988276;28;20025;-60
2021/10/09 09:52:07;;;;;;;21.73;9.73;;;;;;;19.29;41.92;99071.72;4989232;28;20038;-60
2021/10/09 09:54:32;;;;;;;16.83;10.10;;;;;;;19.23;41.22;99070.28;4990848;28;20050;-60
2021/10/09 09:56:59;;;;;;;21.17;10.25;;;;;;;18.54;42.74;99071.59;4988312;28;20127;-59
2021/10/09 09:59:31;;;;;;;15.90;9.35;;;;;;;19.47;41.02;99059.16;4989839;28;20030;-61
2021/10/09 10:02:04;;;;;;;19.17;10.38;;;;;;;18.91;41.31;99074.81;4990541;28;20088;-60
2021/10/09 10:04:35;;;;;;;19.38;9.98;;;;;;;19.65;41.58;99057.19;4992726;28;20034;-60
2021/10/09 10:07:02;;;;;;;17.73;9.88;;;;;;;19.71;40.81;99067.41;4991563;28;20198;-59
2021/10/09 10:09:29;;;;;;;19.25;10.48;;;;;;;19.45;41.66;99067.19;4990410;28;20060;-60
2021/10/09 10:12:00;;;;;;;21.48;10.23;;;;;;;19.90;40.35;99061.00;4988310;28;20511;-60
2021/10/09 10:14:31;;;;;;;19.92;10.45;;;;;;;19.22;41.60;99065.91;4989391;28;20038;-61
2021/10/09 10:16:58;;;;;;;17.95;8.88;;;;;;;18.82;42.83;99063.00;4991197;28;20060;-61
2021/10/09 10:19:57;;;;;;;21.55;9.93;;;;;;;19.37;43.12;99058.88;4990641;28;20038;-60
2021/10/09 10:22:42;;;;;;;17.48;9.93;;;;;;;20.71;39.90;99062.91;4964123;28;20050;-63
2021/10/09 10:25:17;;;;;;;17.65;9.50;;;;;;;18.99;42.25;99064.66;4978562;28;20046;-59
2021/10/09 10:27:44;;;;;;;19.58;10.40;;;;;;;19.23;42.28;99067.63;4989560;28;20069;-59
2021/10/09 10:30:16;;;;;;;21.17;9.55;;;;;;;19.57;41.40;99059.44;4990095;28;20089;-60
2021/10/09 10:33:03;;;;;;;17.40;9.95;;;;;;;19.29;41.27;99066.41;4988359;28;20049;-58
2021/10/09 10:35:34;;;;;;;20.48;10.00;;;;;;;17.83;43.80;99072.84;4990721;28;20563;-59
2021/10/09 10:38:10;;;;;;;20.38;10.10;;;;;;;19.13;41.98;99055.03;4990079;28;20037;-61
2021/10/09 10:40:46;;;;;;;19.85;9.95;;;;;;;20.34;40.46;99055.50;4988575;28;20117;-59
2021/10/09 10:43:52;;;;;;;19.42;9.48;;;;;;;18.66;42.80;99057.69;4990591;28;20117;-59
2021/10/09 10:46:30;;;;;;;20.95;10.43;;;;;;;18.91;41.58;99061.59;4991225;28;20084;-59
2021/10/09 10:49:02;;;;;;;18.55;8.82;;;;;;;19.07;41.44;99057.09;4989856;28;20022;-59
2021/10/09 10:54:19;;;;;;;19.35;9.48;;;;;;;18.86;42.85;99066.31;4991483;28;20486;-60
2021/10/09 10:57:05;;;;;;;16.80;10.18;;;;;;;18.45;42.06;99065.06;4989989;28;20038;-58
2021/10/09 10:59:56;;;;;;;18.48;9.75;;;;;;;17.92;43.76;99067.09;4988736;28;20038;-60
2021/10/09 11:02:39;;;;;;;18.55;9.57;;;;;;;18.29;43.71;99065.06;4989591;28;20526;-58
2021/10/09 11:05:10;;;;;;;14.95;8.85;;;;;;;17.74;44.54;99068.06;4990277;28;20121;-59
2021/10/09 11:07:40;;;;;;;15.38;9.23;;;;;;;17.67;44.00;99061.41;4990190;28;20023;-59
2021/10/09 11:10:08;;;;;;;15.60;8.38;;;;;;;18.84;42.25;99049.69;4989223;28;20025;-58
2021/10/09 11:12:52;;;;;;;16.88;8.25;;;;;;;18.58;43.23;99053.78;4990854;28;20089;-59
2021/10/09 11:15:31;;;;;;;15.00;8.57;;;;;;;18.02;44.79;99050.75;4990704;28;20026;-58
2021/10/09 11:18:02;;;;;;;17.27;8.65;;;;;;;17.45;44.06;99045.84;4994739;28;20014;-59
2021/10/09 11:20:37;;;;;;;14.95;8.38;;;;;;;18.44;42.62;99051.94;4994782;28;20095;-58
2021/10/09 11:23:05;;;;;;;14.48;8.43;;;;;;;18.48;42.45;99038.47;4995312;28;20495;-58
2021/10/09 11:25:32;;;;;;;22.95;8.70;;;;;;;18.17;43.40;99049.06;4991536;28;20042;-57
2021/10/09 11:28:00;;;;;;;16.70;9.07;;;;;;;17.54;44.04;99043.56;4994859;28;20052;-58
2021/10/09 11:30:26;;;;;;;16.90;8.18;;;;;;;17.50;44.88;99039.41;4992734;28;20025;-59
2021/10/09 11:32:54;;;;;;;15.55;8.00;;;;;;;17.62;44.74;99042.31;4993387;28;20026;-59
2021/10/09 11:35:29;;;;;;;16.17;8.48;;;;;;;17.65;45.25;99040.38;5001076;28;20025;-59
2021/10/09 11:37:55;;;;;;;20.48;7.82;;;;;;;16.74;46.67;99049.41;4992933;28;21245;-59
2021/10/09 11:40:32;;;;;;;16.77;7.70;;;;;;;16.56;46.11;99051.19;4991596;28;20103;-59
2021/10/09 11:43:10;;;;;;;15.95;7.90;;;;;;;16.57;46.53;99042.34;4994479;28;20026;-59
2021/10/09 11:56:45;;;;;;;14.60;7.30;;;;;;;16.60;45.89;99036.94;4990580;28;20044;-59
2021/10/09 11:59:13;;;;;;;12.00;6.45;;;;;;;17.01;46.16;99036.66;4987256;28;20546;-58
2021/10/09 12:01:45;;;;;;;15.98;7.20;;;;;;;16.53;45.78;99035.53;4990011;28;20045;-60
2021/10/09 12:04:16;;;;;;;;;;;;;;;16.33;46.58;99039.97;4989938;28;20030;-60
2021/10/09 12:06:57;;;;;;;17.00;7.68;;;;;;;16.49;45.81;99033.97;4988770;28;19921;-58
2021/10/09 12:09:35;;;;;;;15.52;7.78;;;;;;;17.02;45.46;99030.47;4987802;28;20416;-59
2021/10/09 12:12:36;;;;;;;14.23;7.28;;;;;;;16.46;46.28;99031.47;4990449;28;20185;-59
2021/10/09 12:15:02;;;;;;;13.55;7.28;;;;;;;16.29;46.48;99025.25;4980416;28;20043;-59
2021/10/09 12:17:38;;;;;;;16.33;7.30;;;;;;;16.22;46.59;99021.19;5003864;28;20145;-61
2021/10/09 12:20:07;;;;;;;13.57;6.50;;;;;;;16.68;45.07;99016.31;4987536;28;20269;-59
2021/10/09 12:22:44;;;;;;;14.60;6.85;;;;;;;16.74;45.01;99021.28;4986592;28;20758;-63
2021/10/09 12:25:39;;;;;;;14.35;6.78;;;;;;;16.33;45.68;99018.91;4987569;28;20026;-61
2021/10/09 12:28:05;;;;;;;12.27;6.55;;;;;;;16.60;45.79;99010.59;4984043;28;20667;-61
2021/10/09 12:30:44;;;;;;;13.93;6.43;;;;;;;16.33;45.80;99004.88;4989069;28;21653;-61
2021/10/09 12:33:09;;;;;;;15.23;7.10;;;;;;;16.34;45.82;99007.44;4986109;28;20030;-62
2021/10/09 12:35:36;;;;;;;12.77;7.10;;;;;;;16.16;46.16;99006.56;4988838;28;20089;-62
2021/10/09 12:38:08;;;;;;;13.75;7.10;;;;;;;16.22;45.36;99004.56;4988970;28;20518;-61
2021/10/09 12:40:47;;;;;;;;;;;;;;;17.04;45.04;99004.88;4988897;28;20049;-61
2021/10/09 12:43:18;;;;;;;13.13;5.90;;;;;;;17.10;44.69;98988.75;4997190;28;20883;-59
2021/10/09 12:45:44;;;;;;;11.70;5.65;;;;;;;16.23;44.83;98998.34;4990455;28;20711;-61
2021/10/09 12:48:10;;;;;;;12.98;5.70;;;;;;;16.50;44.20;98993.53;4989466;28;20030;-59
2021/10/09 12:50:38;;;;;;;13.27;5.60;;;;;;;16.66;44.01;98994.47;4987498;28;20041;-58
2021/10/09 12:53:04;;;;;;;10.23;5.80;;;;;;;16.70;43.68;98990.75;4986498;28;20709;-58
2021/10/09 12:55:33;;;;;;;12.55;5.60;;;;;;;16.74;42.75;98988.81;4993624;28;20046;-58
2021/10/09 12:58:01;;;;;;;12.02;5.40;;;;;;;17.02;42.60;98983.03;4995733;28;20033;-59
2021/10/09 13:00:28;;;;;;;16.60;5.47;;;;;;;16.84;42.49;98986.59;4986065;28;20046;-59
2021/10/09 13:02:54;;;;;;;10.85;5.07;;;;;;;16.88;42.38;98977.63;4985989;28;20038;-58
2021/10/09 13:05:21;;;;;;;10.13;5.43;;;;;;;16.87;42.17;98978.53;4983248;28;20080;-60
2021/10/09 13:07:46;;;;;;;10.75;5.00;;;;;;;16.93;43.12;98976.44;4986636;28;20026;-59
2021/10/09 13:10:12;;;;;;;8.85;5.10;;;;;;;16.46;42.16;98971.75;4984033;28;20022;-57
2021/10/09 13:12:38;;;;;;;9.07;4.75;;;;;;;16.70;42.13;98969.66;4986215;28;20546;-58
2021/10/09 13:15:04;;;;;;;13.55;5.47;;;;;;;16.50;40.94;98977.72;4988952;28;20030;-59
2021/10/09 13:17:30;;;;;;;12.25;4.63;;;;;;;16.50;40.17;98972.44;4984360;28;20022;-58
2021/10/09 13:19:55;;;;;;;15.23;5.00;;;;;;;16.41;40.22;98979.03;4987274;28;20029;-59
2021/10/09 13:22:21;;;;;;;11.75;4.65;;;;;;;16.31;39.69;98973.38;4986611;28;20121;-59
2021/10/09 13:24:46;;;;;;;9.05;4.07;;;;;;;16.22;40.16;98984.34;4986528;28;20437;-59
2021/10/09 13:27:12;;;;;;;12.32;4.30;;;;;;;16.66;40.01;98970.75;4984379;28;20482;-59
2021/10/09 13:29:37;;;;;;;15.20;4.68;;;;;;;16.89;39.96;98974.03;4987830;28;20088;-61